createdAt,value
2024-03-24T00:00:17.000Z,0.6
2024-03-24T00:02:27.239Z,0.9
2024-03-24T00:04:37.408Z,0.9
2024-03-24T00:06:46.578Z,0.8
2024-03-24T00:08:56.758Z,0.9
2024-03-24T00:11:06.930Z,0.8
2024-03-24T00:13:17.080Z,1.1
2024-03-24T00:15:27.258Z,1
2024-03-24T00:17:37.000Z,0.9
2024-03-24T00:19:47.000Z,1
2024-03-24T00:21:57.000Z,1.1
2024-03-24T00:24:07.929Z,1
2024-03-24T00:26:18.098Z,1.1
2024-03-24T00:28:28.264Z,1
2024-03-24T00:30:38.418Z,1
2024-03-24T00:32:48.601Z,1.1
2024-03-24T00:34:57.787Z,1
2024-03-24T00:37:08.000Z,1
2024-03-24T00:39:18.125Z,1
2024-03-24T00:41:28.284Z,0.9
2024-03-24T00:43:38.000Z,0.8
2024-03-24T00:45:48.601Z,0.9
2024-03-24T00:47:58.790Z,1
2024-03-24T00:50:08.950Z,0.9
2024-03-24T00:52:19.117Z,0.8
2024-03-24T00:54:29.283Z,0.9
2024-03-24T00:56:39.453Z,0.8
2024-03-24T00:58:49.621Z,0.8
2024-03-24T01:00:59.784Z,0.8
2024-03-24T01:03:08.962Z,0.8
2024-03-24T01:05:19.115Z,0.8
2024-03-24T01:07:29.287Z,0.8
2024-03-24T01:09:39.455Z,0.8
2024-03-24T01:11:49.620Z,0.8
2024-03-24T01:13:59.000Z,0.7
2024-03-24T01:16:10.000Z,0.8
2024-03-24T01:18:20.123Z,0.7
2024-03-24T01:20:30.289Z,0.7
2024-03-24T01:22:40.000Z,0.7
2024-03-24T01:24:50.623Z,0.8
2024-03-24T01:27:00.789Z,0.7
2024-03-24T01:29:10.947Z,0.7
2024-03-24T01:31:20.000Z,0.7
2024-03-24T01:33:30.306Z,0.7
2024-03-24T01:35:40.464Z,0.7
2024-03-24T01:37:50.634Z,0.7
2024-03-24T01:40:00.805Z,0.7
2024-03-24T01:42:10.967Z,0.7
2024-03-24T01:44:21.127Z,0.7
2024-03-24T01:46:31.292Z,0.7
2024-03-24T01:48:41.000Z,0.7
2024-03-24T01:50:51.641Z,0.7
2024-03-24T01:53:01.807Z,0.7
2024-03-24T01:55:11.960Z,0.7
2024-03-24T01:57:22.125Z,0.8
2024-03-24T01:59:31.322Z,0.7
2024-03-24T02:01:41.484Z,0.7
2024-03-24T02:03:51.000Z,0.7
2024-03-24T02:06:01.820Z,0.7
2024-03-24T02:08:11.994Z,0.7
2024-03-24T02:10:22.144Z,0.7
2024-03-24T02:12:32.326Z,0.7
2024-03-24T02:14:42.491Z,0.7
2024-03-24T02:16:52.000Z,0.7
2024-03-24T02:19:02.824Z,0.6
2024-03-24T02:21:12.989Z,0.7
2024-03-24T02:23:23.161Z,0.7
2024-03-24T02:25:33.323Z,0.7
2024-03-24T02:27:42.511Z,0.6
2024-03-24T02:29:52.678Z,0.7
2024-03-24T02:32:02.844Z,0.6
2024-03-24T02:34:13.011Z,0.7
2024-03-24T02:36:23.183Z,0.7
2024-03-24T02:38:33.332Z,0.6
2024-03-24T02:40:43.504Z,0.6
2024-03-24T02:42:53.686Z,0.6
2024-03-24T02:45:03.859Z,0.6
2024-03-24T02:47:14.017Z,0.7
2024-03-24T02:49:24.000Z,0.6
2024-03-24T02:51:34.000Z,0.7
2024-03-24T02:53:44.523Z,0.7
2024-03-24T02:55:53.000Z,0.7
2024-03-24T02:58:03.875Z,0.7
2024-03-24T03:00:14.000Z,0.6
2024-03-24T03:02:24.209Z,0.6
2024-03-24T03:04:34.375Z,0.6
2024-03-24T03:06:44.538Z,0.6
2024-03-24T03:08:54.000Z,0.7
2024-03-24T03:11:04.878Z,0.6
2024-03-24T03:13:15.048Z,0.7
2024-03-24T03:15:25.000Z,0.6
2024-03-24T03:17:35.377Z,0.7
2024-03-24T03:19:45.540Z,0.6
2024-03-24T03:21:55.706Z,0.6
2024-03-24T03:24:04.873Z,0.6
2024-03-24T03:26:15.000Z,0.6
2024-03-24T03:28:25.211Z,0.6
2024-03-24T03:30:35.396Z,0.7
2024-03-24T03:32:45.562Z,0.6
2024-03-24T03:34:55.733Z,0.6
2024-03-24T03:37:05.901Z,0.7
2024-03-24T03:39:16.000Z,0.6
2024-03-24T03:41:26.232Z,0.6
2024-03-24T03:43:36.377Z,0.6
2024-03-24T03:45:46.571Z,0.6
2024-03-24T03:47:56.732Z,0.6
2024-03-24T03:50:06.899Z,0.6
2024-03-24T03:52:16.087Z,0.5
2024-03-24T03:54:26.000Z,0.6
2024-03-24T03:56:36.421Z,0.6
2024-03-24T03:58:46.565Z,0.6
2024-03-24T04:00:56.757Z,0.6
2024-03-24T04:03:07.000Z,0.6
2024-03-24T04:05:17.000Z,0.6
2024-03-24T04:07:27.236Z,0.7
2024-03-24T04:09:37.424Z,0.7
2024-03-24T04:11:47.570Z,0.6
2024-03-24T04:13:57.757Z,0.6
2024-03-24T04:16:08.000Z,0.6
2024-03-24T04:18:18.000Z,0.7
2024-03-24T04:20:27.274Z,0.6
2024-03-24T04:22:37.444Z,0.6
2024-03-24T04:24:47.616Z,0.6
2024-03-24T04:26:57.780Z,0.7
2024-03-24T04:29:07.955Z,0.6
2024-03-24T04:31:18.090Z,0.6
2024-03-24T04:33:27.309Z,0.6
2024-03-24T04:35:37.000Z,0.6
2024-03-24T04:37:47.619Z,0.6
2024-03-24T04:39:57.810Z,0.7
2024-03-24T04:42:07.984Z,0.7
2024-03-24T04:44:18.000Z,0.7
2024-03-24T04:46:28.315Z,0.6
2024-03-24T04:48:38.459Z,0.6
2024-03-24T04:50:48.658Z,0.6
2024-03-24T04:52:58.823Z,0.7
2024-03-24T04:55:08.988Z,0.7
2024-03-24T04:57:19.155Z,0.6
2024-03-24T04:59:29.297Z,0.6
2024-03-24T05:01:38.000Z,0.6
2024-03-24T05:03:48.674Z,0.7
2024-03-24T05:05:58.000Z,0.6
2024-03-24T05:08:09.010Z,0.6
2024-03-24T05:10:19.151Z,0.6
2024-03-24T05:12:29.345Z,0.7
2024-03-24T05:14:39.522Z,0.6
2024-03-24T05:16:49.000Z,0.7
2024-03-24T05:18:59.852Z,0.6
2024-03-24T05:21:10.000Z,0.7
2024-03-24T05:23:20.189Z,0.7
2024-03-24T05:25:30.323Z,0.7
2024-03-24T05:27:40.526Z,0.7
2024-03-24T05:29:49.000Z,0.8
2024-03-24T05:31:59.875Z,0.7
2024-03-24T05:34:10.007Z,0.8
2024-03-24T05:36:20.210Z,0.8
2024-03-24T05:38:30.000Z,0.8
2024-03-24T05:40:40.551Z,0.7
2024-03-24T05:42:50.000Z,0.7
2024-03-24T05:45:00.882Z,0.7
2024-03-24T05:47:11.000Z,0.7
2024-03-24T05:49:21.000Z,0.7
2024-03-24T05:51:31.000Z,0.7
2024-03-24T05:53:41.550Z,0.7
2024-03-24T05:55:51.721Z,0.7
2024-03-24T05:58:00.905Z,0.7
2024-03-24T06:00:11.032Z,0.7
2024-03-24T06:02:21.196Z,0.7
2024-03-24T06:04:31.407Z,0.7
2024-03-24T06:06:41.569Z,0.7
2024-03-24T06:08:51.740Z,0.8
2024-03-24T06:11:02.000Z,0.7
2024-03-24T06:13:12.000Z,0.7
2024-03-24T06:15:22.000Z,0.7
2024-03-24T06:17:32.402Z,0.7
2024-03-24T06:19:42.572Z,0.7
2024-03-24T06:21:52.700Z,0.7
2024-03-24T06:24:02.866Z,0.7
2024-03-24T06:26:12.000Z,0.7
2024-03-24T06:28:22.219Z,0.7
2024-03-24T06:30:32.427Z,0.7
2024-03-24T06:32:42.599Z,0.7
2024-03-24T06:34:52.721Z,0.7
2024-03-24T06:37:02.934Z,0.7
2024-03-24T06:39:13.000Z,0.7
2024-03-24T06:41:23.226Z,0.8
2024-03-24T06:43:33.397Z,0.7
2024-03-24T06:45:43.000Z,0.7
2024-03-24T06:47:53.776Z,0.8
2024-03-24T06:50:03.942Z,0.8
2024-03-24T06:52:14.000Z,0.8
2024-03-24T06:54:23.299Z,0.8
2024-03-24T06:56:33.000Z,0.8
2024-03-24T06:58:43.628Z,0.8
2024-03-24T07:00:53.797Z,0.9
2024-03-24T07:03:03.964Z,0.9
2024-03-24T07:05:14.129Z,0.9
2024-03-24T07:07:24.000Z,0.9
2024-03-24T07:09:34.466Z,0.8
2024-03-24T07:11:44.639Z,0.8
2024-03-24T07:13:54.800Z,0.8
2024-03-24T07:16:04.929Z,0.9
2024-03-24T07:18:15.144Z,0.8
2024-03-24T07:20:25.310Z,0.8
2024-03-24T07:22:34.492Z,0.8
2024-03-24T07:24:44.659Z,0.8
2024-03-24T07:26:54.781Z,0.8
2024-03-24T07:29:04.993Z,0.8
2024-03-24T07:31:15.163Z,0.7
2024-03-24T07:33:25.328Z,0.8
2024-03-24T07:35:35.000Z,0.9
2024-03-24T07:37:45.665Z,0.8
2024-03-24T07:39:55.839Z,0.8
2024-03-24T07:42:06.000Z,0.8
2024-03-24T07:44:16.127Z,0.7
2024-03-24T07:46:26.338Z,0.8
2024-03-24T07:48:36.509Z,0.7
2024-03-24T07:50:45.647Z,0.7
2024-03-24T07:52:55.812Z,0.8
2024-03-24T07:55:06.000Z,0.8
2024-03-24T07:57:16.190Z,0.8
2024-03-24T07:59:26.356Z,0.7
2024-03-24T08:01:36.527Z,0.7
2024-03-24T08:03:46.000Z,0.7
2024-03-24T08:05:56.871Z,0.7
2024-03-24T08:08:07.000Z,0.7
2024-03-24T08:10:17.207Z,0.7
2024-03-24T08:12:27.371Z,0.7
2024-03-24T08:14:37.533Z,0.8
2024-03-24T08:16:47.000Z,0.7
2024-03-24T08:18:56.898Z,0.7
2024-03-24T08:21:07.000Z,0.7
2024-03-24T08:23:17.226Z,0.7
2024-03-24T08:25:27.000Z,0.7
2024-03-24T08:27:37.563Z,0.7
2024-03-24T08:29:47.737Z,0.7
2024-03-24T08:31:58.000Z,0.7
2024-03-24T08:34:08.069Z,0.6
2024-03-24T08:36:18.246Z,0.6
2024-03-24T08:38:28.406Z,0.7
2024-03-24T08:40:38.572Z,0.7
2024-03-24T08:42:48.683Z,0.6
2024-03-24T08:44:58.904Z,0.6
2024-03-24T08:47:08.092Z,0.6
2024-03-24T08:49:18.260Z,0.7
2024-03-24T08:51:28.375Z,0.7
2024-03-24T08:53:38.537Z,0.8
2024-03-24T08:55:48.769Z,0.8
2024-03-24T08:57:58.875Z,0.8
2024-03-24T09:00:09.093Z,0.8
2024-03-24T09:02:19.264Z,0.8
2024-03-24T09:04:29.430Z,0.7
2024-03-24T09:06:39.596Z,0.8
2024-03-24T09:08:49.762Z,0.8
2024-03-24T09:10:59.876Z,0.8
2024-03-24T09:13:10.095Z,0.7
2024-03-24T09:15:19.279Z,0.9
2024-03-24T09:17:29.453Z,1
2024-03-24T09:19:39.611Z,0.8
2024-03-24T09:21:49.782Z,1
2024-03-24T09:24:00.000Z,0.9
2024-03-24T09:26:10.115Z,0.8
2024-03-24T09:28:20.000Z,0.9
2024-03-24T09:30:30.445Z,1
2024-03-24T09:32:40.617Z,0.8
2024-03-24T09:34:50.783Z,0.9
2024-03-24T09:37:01.000Z,0.9
2024-03-24T09:39:11.118Z,0.9
2024-03-24T09:41:21.282Z,0.9
2024-03-24T09:43:30.000Z,0.9
2024-03-24T09:45:40.633Z,0.8
2024-03-24T09:47:50.804Z,0.9
2024-03-24T09:50:01.000Z,0.8
2024-03-24T09:52:11.130Z,0.9
2024-03-24T09:54:21.296Z,0.7
2024-03-24T09:56:31.462Z,0.8
2024-03-24T09:58:41.000Z,0.9
2024-03-24T10:00:51.731Z,0.9
2024-03-24T10:03:02.000Z,0.9
2024-03-24T10:05:12.134Z,0.8
2024-03-24T10:07:22.298Z,0.9
2024-03-24T10:09:32.465Z,0.9
2024-03-24T10:11:41.651Z,0.9
2024-03-24T10:13:51.746Z,1
2024-03-24T10:16:02.000Z,0.9
2024-03-24T10:18:12.000Z,0.9
2024-03-24T10:20:22.316Z,0.9
2024-03-24T10:22:32.000Z,0.9
2024-03-24T10:24:42.649Z,0.8
2024-03-24T10:26:52.814Z,0.8
2024-03-24T10:29:03.000Z,0.9
2024-03-24T10:31:13.000Z,0.8
2024-03-24T10:33:23.000Z,0.9
2024-03-24T10:35:33.000Z,0.8
2024-03-24T10:37:43.655Z,0.8
2024-03-24T10:39:52.841Z,0.8
2024-03-24T10:42:03.000Z,0.9
2024-03-24T10:44:13.000Z,0.8
2024-03-24T10:46:23.338Z,0.9
2024-03-24T10:48:33.502Z,0.9
2024-03-24T10:50:43.600Z,0.9
2024-03-24T10:52:53.838Z,0.9
2024-03-24T10:55:04.007Z,1
2024-03-24T10:57:14.099Z,1
2024-03-24T10:59:24.272Z,0.9
2024-03-24T11:01:34.000Z,0.9
2024-03-24T11:03:44.679Z,0.9
2024-03-24T11:05:54.839Z,0.8
2024-03-24T11:08:04.000Z,0.9
2024-03-24T11:10:14.000Z,0.8
2024-03-24T11:12:24.360Z,0.8
2024-03-24T11:14:34.522Z,0.9
2024-03-24T11:16:44.693Z,0.8
2024-03-24T11:18:54.788Z,0.8
2024-03-24T11:21:04.952Z,0.8
2024-03-24T11:23:15.193Z,0.9
2024-03-24T11:25:25.362Z,0.9
2024-03-24T11:27:35.525Z,0.9
2024-03-24T11:29:45.688Z,0.8
2024-03-24T11:31:55.860Z,0.8
2024-03-24T11:34:06.000Z,0.7
2024-03-24T11:36:15.207Z,0.9
2024-03-24T11:38:25.306Z,0.8
2024-03-24T11:40:35.544Z,0.8
2024-03-24T11:42:45.719Z,0.8
2024-03-24T11:44:55.882Z,0.8
2024-03-24T11:47:06.000Z,0.8
2024-03-24T11:49:16.346Z,0.7
2024-03-24T11:51:26.508Z,0.8
2024-03-24T11:53:36.681Z,0.8
2024-03-24T11:55:46.849Z,0.8
2024-03-24T11:57:56.938Z,0.7
2024-03-24T12:00:07.182Z,0.9
2024-03-24T12:02:17.270Z,0.8
2024-03-24T12:04:27.000Z,0.9
2024-03-24T12:06:37.681Z,0.8
2024-03-24T12:08:47.844Z,0.8
2024-03-24T12:10:58.000Z,0.8
2024-03-24T12:13:08.102Z,0.8
2024-03-24T12:15:18.345Z,0.8
2024-03-24T12:17:27.531Z,0.8
2024-03-24T12:19:37.697Z,0.8
2024-03-24T12:21:47.869Z,0.8
2024-03-24T12:23:57.959Z,0.7
2024-03-24T12:26:08.129Z,0.8
2024-03-24T12:28:18.368Z,0.8
2024-03-24T12:30:28.000Z,0.8
2024-03-24T12:32:38.707Z,0.7
2024-03-24T12:34:48.796Z,0.9
2024-03-24T12:36:58.962Z,0.8
2024-03-24T12:39:09.130Z,0.7
2024-03-24T12:41:19.379Z,0.9
2024-03-24T12:43:29.000Z,0.8
2024-03-24T12:45:38.733Z,0.8
2024-03-24T12:47:48.816Z,0.7
2024-03-24T12:49:59.000Z,0.8
2024-03-24T12:52:09.230Z,0.9
2024-03-24T12:54:19.396Z,0.9
2024-03-24T12:56:29.569Z,0.7
2024-03-24T12:58:39.727Z,0.7
2024-03-24T13:00:50.000Z,0.8
2024-03-24T13:02:59.984Z,0.8
2024-03-24T13:05:10.000Z,0.8
2024-03-24T13:07:20.402Z,0.9
2024-03-24T13:09:30.561Z,0.8
2024-03-24T13:11:40.731Z,0.8
2024-03-24T13:13:49.831Z,0.9
2024-03-24T13:16:00.000Z,0.8
2024-03-24T13:18:10.258Z,0.8
2024-03-24T13:20:20.420Z,0.8
2024-03-24T13:22:30.000Z,0.9
2024-03-24T13:24:40.000Z,0.8
2024-03-24T13:26:50.921Z,0.8
2024-03-24T13:29:01.091Z,0.9
2024-03-24T13:31:11.257Z,0.9
2024-03-24T13:33:21.000Z,0.9
2024-03-24T13:35:31.000Z,0.9
2024-03-24T13:37:41.000Z,0.9
2024-03-24T13:39:52.000Z,0.9
2024-03-24T13:42:01.113Z,1.3
2024-03-24T13:44:11.280Z,1.8
2024-03-24T13:46:21.442Z,1.5
2024-03-24T13:48:31.612Z,1.8
2024-03-24T13:50:41.781Z,2.1
2024-03-24T13:52:51.951Z,2.2
2024-03-24T13:55:02.028Z,1.9
2024-03-24T13:57:12.280Z,1.9
2024-03-24T13:59:22.000Z,2
2024-03-24T14:01:32.530Z,2
2024-03-24T14:03:42.788Z,2
2024-03-24T14:05:52.953Z,2.1
2024-03-24T14:08:03.000Z,1.9
2024-03-24T14:10:12.000Z,1.9
2024-03-24T14:12:22.478Z,1.9
2024-03-24T14:14:32.641Z,1.9
2024-03-24T14:16:42.804Z,1.8
2024-03-24T14:18:53.000Z,2
2024-03-24T14:21:03.000Z,1.9
2024-03-24T14:23:13.308Z,1.7
2024-03-24T14:25:23.472Z,1.9
2024-03-24T14:27:33.644Z,1.6
2024-03-24T14:29:43.000Z,1.6
2024-03-24T14:31:54.000Z,1.7
2024-03-24T14:34:04.151Z,1.5
2024-03-24T14:36:14.319Z,1.5
2024-03-24T14:38:23.407Z,1.5
2024-03-24T14:40:33.671Z,1.4
2024-03-24T14:42:43.837Z,1.5
2024-03-24T14:44:53.913Z,1.4
2024-03-24T14:47:04.174Z,1.3
2024-03-24T14:49:14.249Z,1.3
2024-03-24T14:51:24.421Z,1.3
2024-03-24T14:53:34.682Z,1.3
2024-03-24T14:55:44.843Z,1.2
2024-03-24T14:57:54.919Z,1.3
2024-03-24T15:00:05.182Z,1.3
2024-03-24T15:02:15.349Z,1.2
2024-03-24T15:04:25.516Z,1.3
2024-03-24T15:06:34.602Z,1.3
2024-03-24T15:08:45.000Z,1.2
2024-03-24T15:10:54.946Z,1
2024-03-24T15:13:05.000Z,1.1
2024-03-24T15:15:15.364Z,1.3
2024-03-24T15:17:25.528Z,1.1
2024-03-24T15:19:35.699Z,1.1
2024-03-24T15:21:45.868Z,1.2
2024-03-24T15:23:56.031Z,1.2
2024-03-24T15:26:06.199Z,1.1
2024-03-24T15:28:16.270Z,1.1
2024-03-24T15:30:26.534Z,1.1
2024-03-24T15:32:36.000Z,1.4
2024-03-24T15:34:46.000Z,1.6
2024-03-24T15:36:56.000Z,1.8
2024-03-24T15:39:06.000Z,1.7
2024-03-24T15:41:16.383Z,1.6
2024-03-24T15:43:26.552Z,1.6
2024-03-24T15:45:36.621Z,1.5
2024-03-24T15:47:46.890Z,1.7
2024-03-24T15:49:57.000Z,1.5
2024-03-24T15:52:07.222Z,1.6
2024-03-24T15:54:17.396Z,1.5
2024-03-24T15:56:27.561Z,1.8
2024-03-24T15:58:37.727Z,1.6
2024-03-24T16:00:47.894Z,1.6
2024-03-24T16:02:57.084Z,1.6
2024-03-24T16:05:07.246Z,1.5
2024-03-24T16:07:17.419Z,1.6
2024-03-24T16:09:27.000Z,1.4
2024-03-24T16:11:37.746Z,1.6
2024-03-24T16:13:48.000Z,1.7
2024-03-24T16:15:58.080Z,1.6
2024-03-24T16:18:08.147Z,1.4
2024-03-24T16:20:18.412Z,1.5
2024-03-24T16:22:28.589Z,1.4
2024-03-24T16:24:38.754Z,1.4
2024-03-24T16:26:49.000Z,1.4
2024-03-24T16:28:59.086Z,1.5
2024-03-24T16:31:08.268Z,1.3
2024-03-24T16:33:18.438Z,1.4
2024-03-24T16:35:28.600Z,1.3
2024-03-24T16:37:38.771Z,1.5
2024-03-24T16:39:49.000Z,1.3
2024-03-24T16:41:59.100Z,1.4
2024-03-24T16:44:09.268Z,1.5
2024-03-24T16:46:19.332Z,1.3
2024-03-24T16:48:29.602Z,1.3
2024-03-24T16:50:39.768Z,1.2
2024-03-24T16:52:50.000Z,1.3
2024-03-24T16:55:00.000Z,1.2
2024-03-24T16:57:10.271Z,1.3
2024-03-24T16:59:19.455Z,1.3
2024-03-24T17:01:29.513Z,1.3
2024-03-24T17:03:39.680Z,1.3
2024-03-24T17:05:50.000Z,1.2
2024-03-24T17:08:00.124Z,1.3
2024-03-24T17:10:10.000Z,1.6
2024-03-24T17:12:20.463Z,1.3
2024-03-24T17:14:30.630Z,1.2
2024-03-24T17:16:40.000Z,1.2
2024-03-24T17:18:51.000Z,1.4
2024-03-24T17:21:01.136Z,1.4
2024-03-24T17:23:11.000Z,1.3
2024-03-24T17:25:21.470Z,1.2
2024-03-24T17:27:30.651Z,1.1
2024-03-24T17:29:40.822Z,1.3
2024-03-24T17:31:51.000Z,1
2024-03-24T17:34:01.152Z,1.1
2024-03-24T17:36:11.324Z,1.2
2024-03-24T17:38:21.487Z,1.1
2024-03-24T17:40:31.650Z,1.1
2024-03-24T17:42:41.824Z,1.1
2024-03-24T17:44:51.873Z,1.1
2024-03-24T17:47:02.160Z,1.1
2024-03-24T17:49:12.210Z,1.2
2024-03-24T17:51:22.495Z,1.2
2024-03-24T17:53:32.657Z,1
2024-03-24T17:55:41.000Z,1.1
2024-03-24T17:57:52.007Z,1.2
2024-03-24T18:00:02.171Z,1
2024-03-24T18:02:12.344Z,1.1
2024-03-24T18:04:22.394Z,1
2024-03-24T18:06:32.674Z,1.1
2024-03-24T18:08:42.735Z,1.1
2024-03-24T18:10:52.896Z,1
2024-03-24T18:13:03.000Z,1.1
2024-03-24T18:15:13.348Z,0.9
2024-03-24T18:17:23.515Z,1
2024-03-24T18:19:33.680Z,1.1
2024-03-24T18:21:43.847Z,1.1
2024-03-24T18:23:53.033Z,1
2024-03-24T18:26:03.195Z,0.9
2024-03-24T18:28:13.000Z,0.9
2024-03-24T18:30:23.534Z,1
2024-03-24T18:32:33.000Z,0.9
2024-03-24T18:34:43.870Z,1
2024-03-24T18:36:53.917Z,0.9
2024-03-24T18:39:04.200Z,0.8
2024-03-24T18:41:14.369Z,1
2024-03-24T18:43:24.537Z,1
2024-03-24T18:45:34.707Z,0.9
2024-03-24T18:47:44.871Z,0.8
2024-03-24T18:49:55.000Z,0.9
2024-03-24T18:52:04.231Z,0.9
2024-03-24T18:54:14.390Z,0.9
2024-03-24T18:56:24.000Z,0.9
2024-03-24T18:58:34.000Z,0.8
2024-03-24T19:00:45.000Z,0.9
2024-03-24T19:02:55.000Z,0.9
2024-03-24T19:05:04.229Z,0.9
2024-03-24T19:07:14.298Z,0.9
2024-03-24T19:09:24.468Z,0.8
2024-03-24T19:11:34.732Z,0.9
2024-03-24T19:13:45.000Z,0.9
2024-03-24T19:15:55.067Z,0.9
2024-03-24T19:18:05.239Z,0.8
2024-03-24T19:20:15.404Z,0.9
2024-03-24T19:22:25.000Z,1
2024-03-24T19:24:35.731Z,0.9
2024-03-24T19:26:46.000Z,0.9
2024-03-24T19:28:56.069Z,0.9
2024-03-24T19:31:06.236Z,0.9
2024-03-24T19:33:15.426Z,1
2024-03-24T19:35:25.585Z,0.9
2024-03-24T19:37:35.754Z,0.9
2024-03-24T19:39:45.818Z,0.9
2024-03-24T19:41:56.096Z,0.8
2024-03-24T19:44:06.256Z,0.9
2024-03-24T19:46:16.000Z,0.8
2024-03-24T19:48:26.597Z,0.9
2024-03-24T19:50:36.000Z,0.9
2024-03-24T19:52:47.000Z,1
2024-03-24T19:54:57.093Z,0.9
2024-03-24T19:57:07.262Z,0.8
2024-03-24T19:59:17.323Z,0.9
2024-03-24T20:01:26.615Z,1.1
2024-03-24T20:03:36.788Z,0.9
2024-03-24T20:05:47.000Z,0.8
2024-03-24T20:07:57.118Z,0.9
2024-03-24T20:10:07.000Z,0.9
2024-03-24T20:12:17.341Z,1
2024-03-24T20:14:27.627Z,0.9
2024-03-24T20:16:37.787Z,0.9
2024-03-24T20:18:47.848Z,0.9
2024-03-24T20:20:58.124Z,0.9
2024-03-24T20:23:08.291Z,1
2024-03-24T20:25:18.461Z,0.9
2024-03-24T20:27:28.628Z,0.9
2024-03-24T20:29:37.814Z,0.9
2024-03-24T20:31:48.000Z,0.9
2024-03-24T20:33:58.150Z,0.9
2024-03-24T20:36:08.313Z,0.8
2024-03-24T20:38:18.485Z,0.8
2024-03-24T20:40:28.655Z,0.8
2024-03-24T20:42:38.709Z,0.9
2024-03-24T20:44:49.000Z,0.9
2024-03-24T20:46:59.154Z,0.9
2024-03-24T20:49:09.000Z,0.8
2024-03-24T20:51:19.488Z,0.9
2024-03-24T20:53:29.000Z,0.9
2024-03-24T20:55:39.000Z,0.8
2024-03-24T20:57:49.000Z,0.8
2024-03-24T20:59:59.184Z,0.8
2024-03-24T21:02:09.341Z,0.8
2024-03-24T21:04:19.000Z,0.8
2024-03-24T21:06:29.676Z,0.8
2024-03-24T21:08:40.000Z,0.9
2024-03-24T21:10:50.000Z,0.9
2024-03-24T21:13:00.061Z,1
2024-03-24T21:15:10.229Z,0.9
2024-03-24T21:17:20.513Z,0.9
2024-03-24T21:19:30.684Z,0.9
2024-03-24T21:21:40.732Z,0.9
2024-03-24T21:23:51.019Z,1
2024-03-24T21:26:00.205Z,0.9
2024-03-24T21:28:10.376Z,0.8
2024-03-24T21:30:20.540Z,0.9
2024-03-24T21:32:30.587Z,0.9
2024-03-24T21:34:40.754Z,0.9
2024-03-24T21:36:51.046Z,0.9
2024-03-24T21:39:01.209Z,1
2024-03-24T21:41:11.377Z,1
2024-03-24T21:43:21.423Z,0.9
2024-03-24T21:45:31.000Z,0.9
2024-03-24T21:47:41.875Z,0.9
2024-03-24T21:49:52.045Z,0.8
2024-03-24T21:52:02.089Z,0.8
2024-03-24T21:54:11.273Z,0.9
2024-03-24T21:56:21.566Z,0.8
2024-03-24T21:58:31.729Z,0.9
2024-03-24T22:00:41.896Z,1
2024-03-24T22:02:52.060Z,0.9
2024-03-24T22:05:02.230Z,0.9
2024-03-24T22:07:12.392Z,0.9
2024-03-24T22:09:22.562Z,0.9
2024-03-24T22:11:32.728Z,0.8
2024-03-24T22:13:43.000Z,0.9
2024-03-24T22:15:52.942Z,0.9
2024-03-24T22:18:03.113Z,0.8
2024-03-24T22:20:13.409Z,0.8
2024-03-24T22:22:22.000Z,0.8
2024-03-24T22:24:32.000Z,0.8
2024-03-24T22:26:42.796Z,0.8
2024-03-24T22:28:53.095Z,0.8
2024-03-24T22:31:03.262Z,0.9
2024-03-24T22:33:13.431Z,0.8
2024-03-24T22:35:23.596Z,0.8
2024-03-24T22:37:33.764Z,0.8
2024-03-24T22:39:44.000Z,0.8
2024-03-24T22:41:54.000Z,0.9
2024-03-24T22:44:04.266Z,0.8
2024-03-24T22:46:14.307Z,0.8
2024-03-24T22:48:24.597Z,0.8
2024-03-24T22:50:33.778Z,0.9
2024-03-24T22:52:43.949Z,0.8
2024-03-24T22:54:53.993Z,0.9
2024-03-24T22:57:04.000Z,0.8
2024-03-24T22:59:14.452Z,0.8
2024-03-24T23:01:24.486Z,0.8
2024-03-24T23:03:34.785Z,0.8
2024-03-24T23:05:44.819Z,0.9
2024-03-24T23:07:55.119Z,0.8
2024-03-24T23:10:05.284Z,0.8
2024-03-24T23:12:15.454Z,0.9
2024-03-24T23:14:25.617Z,0.7
2024-03-24T23:16:35.653Z,0.8
2024-03-24T23:18:45.000Z,0.8
2024-03-24T23:20:55.135Z,0.8
2024-03-24T23:23:05.000Z,0.8
2024-03-24T23:25:15.471Z,0.9
2024-03-24T23:27:25.641Z,0.7
2024-03-24T23:29:35.803Z,0.9
2024-03-24T23:31:45.968Z,0.8
2024-03-24T23:33:56.003Z,0.8
2024-03-24T23:36:06.000Z,0.8
2024-03-24T23:38:16.337Z,0.8
2024-03-24T23:40:26.504Z,0.8
2024-03-24T23:42:36.809Z,0.9
2024-03-24T23:44:46.971Z,0.9
2024-03-24T23:46:56.158Z,1
2024-03-24T23:49:06.324Z,0.9
2024-03-24T23:51:16.495Z,0.9
2024-03-24T23:53:26.662Z,0.8
2024-03-24T23:55:36.690Z,0.9
2024-03-24T23:57:46.994Z,0.9
2024-03-24T23:59:57.027Z,0.8
